createdAt,value
2023-05-10T00:00:35.273Z,661.95
2023-05-10T00:03:05.417Z,650.58
2023-05-10T00:05:33.910Z,718.05
2023-05-10T00:08:02.311Z,667.97
2023-05-10T00:10:30.856Z,793.58
2023-05-10T00:13:00.580Z,714.30
2023-05-10T00:15:28.989Z,734.78
2023-05-10T00:17:57.360Z,715.17
2023-05-10T00:20:25.802Z,709.30
2023-05-10T00:22:54.210Z,684.70
2023-05-10T00:25:23.034Z,677.28
2023-05-10T00:27:51.568Z,667.42
2023-05-10T00:30:21.520Z,662.83
2023-05-10T00:32:50.848Z,687.40
2023-05-10T00:35:19.374Z,675.58
2023-05-10T00:37:47.710Z,675.80
2023-05-10T00:40:16.647Z,668.05
2023-05-10T00:42:45.331Z,674.92
2023-05-10T00:45:13.735Z,695.00
2023-05-10T00:47:43.932Z,662.97
2023-05-10T00:50:12.676Z,663.67
2023-05-10T00:52:41.183Z,653.92
2023-05-10T00:55:10.595Z,666.13
2023-05-10T00:57:39.024Z,645.10
2023-05-10T01:00:08.593Z,638.13
2023-05-10T01:02:37.377Z,681.42
2023-05-10T01:05:08.065Z,649.22
2023-05-10T01:07:36.848Z,668.70
2023-05-10T01:10:05.534Z,662.40
2023-05-10T01:12:34.070Z,672.85
2023-05-10T01:15:03.468Z,652.08
2023-05-10T01:17:32.418Z,664.72
2023-05-10T01:20:01.026Z,652.92
2023-05-10T01:22:45.235Z,679.03
2023-05-10T01:25:38.972Z,658.20
2023-05-10T01:28:42.922Z,679.03
2023-05-10T01:31:37.224Z,713.15
2023-05-10T01:34:10.848Z,684.03
2023-05-10T01:36:44.356Z,743.95
2023-05-10T01:39:17.933Z,711.43
2023-05-10T01:41:51.954Z,751.53
2023-05-10T01:44:26.124Z,762.08
2023-05-10T01:46:58.116Z,772.30
2023-05-10T01:49:31.205Z,695.78
2023-05-10T01:52:09.009Z,684.53
2023-05-10T01:54:38.862Z,751.88
2023-05-10T01:57:10.035Z,766.72
2023-05-10T01:59:41.725Z,663.13
2023-05-10T02:02:13.044Z,725.53
2023-05-10T02:04:43.373Z,707.97
2023-05-10T02:07:12.641Z,675.70
2023-05-10T02:09:41.139Z,733.35
2023-05-10T02:12:10.577Z,756.38
2023-05-10T02:14:39.870Z,672.08
2023-05-10T02:17:09.006Z,747.63
2023-05-10T02:19:40.642Z,679.95
2023-05-10T02:22:11.089Z,670.70
2023-05-10T02:24:39.824Z,725.83
2023-05-10T02:27:09.172Z,704.72
2023-05-10T02:29:39.225Z,678.88
2023-05-10T02:32:08.118Z,735.20
2023-05-10T02:34:36.712Z,718.75
2023-05-10T02:37:05.595Z,698.78
2023-05-10T02:39:35.579Z,707.45
2023-05-10T02:42:04.827Z,668.28
2023-05-10T02:44:33.262Z,697.47
2023-05-10T02:47:01.709Z,721.38
2023-05-10T02:49:30.128Z,778.65
2023-05-10T02:52:03.247Z,739.83
2023-05-10T02:54:37.980Z,771.85
2023-05-10T02:57:07.639Z,732.55
2023-05-10T02:59:36.025Z,766.97
2023-05-10T03:02:04.826Z,778.65
2023-05-10T03:04:33.251Z,735.50
2023-05-10T03:07:01.609Z,768.00
2023-05-10T03:09:30.088Z,720.50
2023-05-10T03:12:06.260Z,764.08
2023-05-10T03:14:45.771Z,731.60
2023-05-10T03:17:19.179Z,732.25
2023-05-10T03:19:52.808Z,751.40
2023-05-10T03:22:25.777Z,767.00
2023-05-10T03:24:58.450Z,768.17
2023-05-10T03:27:29.418Z,812.05
2023-05-10T03:29:58.979Z,759.03
2023-05-10T03:32:36.152Z,771.40
2023-05-10T03:35:11.739Z,781.40
2023-05-10T03:37:40.424Z,724.85
2023-05-10T03:40:18.646Z,789.58
2023-05-10T03:42:48.663Z,774.70
2023-05-10T03:45:17.242Z,781.58
2023-05-10T03:47:45.663Z,738.22
2023-05-10T03:50:14.263Z,774.25
2023-05-10T03:52:43.373Z,750.75
2023-05-10T03:55:12.125Z,763.75
2023-05-10T03:57:41.057Z,721.53
2023-05-10T04:00:12.489Z,791.78
2023-05-10T04:02:41.521Z,769.72
2023-05-10T04:05:11.048Z,779.42
2023-05-10T04:07:39.439Z,809.03
2023-05-10T04:10:08.685Z,795.05
2023-05-10T04:12:37.055Z,792.92
2023-05-10T04:15:06.231Z,771.72
2023-05-10T04:17:36.073Z,776.72
2023-05-10T04:20:04.846Z,785.45
2023-05-10T04:22:34.159Z,766.88
2023-05-10T04:25:02.742Z,740.95
2023-05-10T04:27:31.247Z,772.47
2023-05-10T04:29:59.693Z,771.35
2023-05-10T04:32:28.107Z,764.47
2023-05-10T04:35:00.613Z,768.97
2023-05-10T04:37:29.091Z,778.65
2023-05-10T04:39:57.533Z,756.20
2023-05-10T04:42:25.957Z,778.10
2023-05-10T04:44:54.311Z,765.22
2023-05-10T04:47:22.979Z,755.15
2023-05-10T04:49:51.414Z,772.15
2023-05-10T04:52:21.253Z,761.50
2023-05-10T04:54:49.737Z,738.88
2023-05-10T04:57:18.255Z,738.35
2023-05-10T04:59:48.950Z,778.60
2023-05-10T05:02:18.761Z,740.00
2023-05-10T05:04:47.381Z,705.72
2023-05-10T05:07:17.677Z,792.97
2023-05-10T05:09:48.616Z,723.25
2023-05-10T05:12:21.607Z,785.95
2023-05-10T05:14:57.953Z,769.22
2023-05-10T05:17:26.376Z,735.67
2023-05-10T05:19:59.174Z,751.75
2023-05-10T05:22:29.181Z,746.88
2023-05-10T05:25:00.685Z,786.75
2023-05-10T05:27:29.318Z,775.08
2023-05-10T05:29:58.342Z,754.50
2023-05-10T05:32:28.931Z,728.50
2023-05-10T05:34:57.552Z,727.15
2023-05-10T05:37:26.202Z,801.53
2023-05-10T05:39:56.110Z,726.45
2023-05-10T05:42:26.071Z,738.45
2023-05-10T05:44:55.139Z,739.38
2023-05-10T05:47:23.849Z,740.42
2023-05-10T05:49:52.578Z,786.22
2023-05-10T05:52:22.393Z,877.55
2023-05-10T05:54:51.048Z,758.78
2023-05-10T05:57:19.547Z,700.33
2023-05-10T05:59:49.629Z,704.70
2023-05-10T06:02:18.068Z,760.75
2023-05-10T06:04:47.379Z,726.78
2023-05-10T06:07:15.783Z,748.10
2023-05-10T06:09:44.313Z,756.05
2023-05-10T06:12:13.656Z,767.05
2023-05-10T06:14:48.730Z,781.95
2023-05-10T06:17:19.366Z,739.22
2023-05-10T06:19:48.270Z,756.92
2023-05-10T06:22:17.343Z,795.97
2023-05-10T06:24:45.884Z,785.83
2023-05-10T06:27:14.476Z,776.95
2023-05-10T06:29:42.914Z,756.75
2023-05-10T06:32:11.416Z,864.22
2023-05-10T06:34:41.253Z,758.88
2023-05-10T06:37:09.821Z,824.30
2023-05-10T06:39:38.217Z,767.80
2023-05-10T06:42:06.848Z,756.05
2023-05-10T06:44:35.378Z,753.65
2023-05-10T06:47:03.892Z,761.88
2023-05-10T06:49:32.381Z,750.92
2023-05-10T06:52:02.600Z,726.22
2023-05-10T06:54:31.034Z,746.38
2023-05-10T06:57:00.441Z,738.70
2023-05-10T06:59:29.832Z,731.63
2023-05-10T07:01:58.691Z,724.72
2023-05-10T07:04:27.701Z,743.97
2023-05-10T07:06:56.261Z,710.20
2023-05-10T07:09:26.675Z,757.95
2023-05-10T07:11:55.511Z,757.83
2023-05-10T07:14:23.994Z,824.80
2023-05-10T07:16:52.782Z,804.88
2023-05-10T07:19:21.605Z,800.38
2023-05-10T07:21:51.972Z,858.85
2023-05-10T07:24:20.630Z,909.65
2023-05-10T07:26:50.533Z,810.83
2023-05-10T07:29:19.162Z,811.25
2023-05-10T07:31:47.895Z,799.97
2023-05-10T07:34:16.524Z,791.83
2023-05-10T07:36:45.342Z,800.95
2023-05-10T07:39:18.693Z,818.03
2023-05-10T07:41:56.581Z,916.80
2023-05-10T07:44:25.189Z,843.72
2023-05-10T07:46:53.720Z,810.70
2023-05-10T07:49:22.349Z,835.88
2023-05-10T07:51:51.044Z,795.08
2023-05-10T07:54:19.485Z,813.13
2023-05-10T07:56:48.434Z,793.10
2023-05-10T07:59:19.676Z,817.88
2023-05-10T08:01:48.114Z,823.88
2023-05-10T08:04:17.051Z,801.50
2023-05-10T08:06:45.725Z,957.25
2023-05-10T08:09:14.109Z,798.47
2023-05-10T08:11:42.582Z,807.25
2023-05-10T08:14:11.056Z,818.10
2023-05-10T08:16:40.820Z,796.80
2023-05-10T08:19:09.414Z,796.78
2023-05-10T08:21:38.383Z,795.90
2023-05-10T08:24:07.571Z,788.58
2023-05-10T08:26:36.567Z,775.35
2023-05-10T08:29:05.031Z,777.97
2023-05-10T08:31:33.713Z,781.58
2023-05-10T08:34:04.011Z,772.13
2023-05-10T08:36:33.301Z,815.05
2023-05-10T08:39:01.719Z,818.58
2023-05-10T08:41:30.668Z,814.55
2023-05-10T08:43:59.380Z,894.17
2023-05-10T08:46:29.614Z,816.05
2023-05-10T08:48:59.153Z,780.25
2023-05-10T08:51:30.889Z,787.13
2023-05-10T08:54:24.205Z,773.95
2023-05-10T08:56:54.284Z,763.38
2023-05-10T08:59:22.761Z,787.35
2023-05-10T09:01:52.552Z,798.08
2023-05-10T09:04:25.824Z,793.35
2023-05-10T09:06:56.396Z,801.57
2023-05-10T09:09:25.463Z,817.90
2023-05-10T09:11:57.194Z,802.95
2023-05-10T09:14:27.362Z,813.78
2023-05-10T09:16:57.919Z,806.83
2023-05-10T09:19:26.980Z,931.03
2023-05-10T09:21:57.667Z,856.47
2023-05-10T09:24:29.922Z,842.33
2023-05-10T09:27:00.276Z,805.65
2023-05-10T09:29:29.855Z,804.72
2023-05-10T09:31:59.056Z,782.83
2023-05-10T09:34:32.700Z,798.97
2023-05-10T09:37:05.827Z,781.30
2023-05-10T09:39:36.716Z,794.45
2023-05-10T09:42:09.024Z,890.53
2023-05-10T09:44:39.489Z,810.55
2023-05-10T09:47:08.668Z,780.47
2023-05-10T09:49:37.678Z,803.40
2023-05-10T09:52:08.889Z,857.50
2023-05-10T09:54:37.892Z,811.17
2023-05-10T09:57:09.034Z,810.35
2023-05-10T09:59:38.432Z,894.20
2023-05-10T10:02:07.127Z,914.55
2023-05-10T10:04:41.986Z,835.88
2023-05-10T10:07:12.324Z,818.78
2023-05-10T10:09:41.462Z,828.30
2023-05-10T10:12:20.452Z,824.45
2023-05-10T10:14:50.608Z,828.03
2023-05-10T10:17:19.938Z,818.30
2023-05-10T10:19:49.782Z,811.05
2023-05-10T10:22:20.210Z,862.75
2023-05-10T10:24:48.861Z,817.42
2023-05-10T10:27:27.464Z,822.05
2023-05-10T10:30:03.893Z,860.65
2023-05-10T10:32:39.908Z,829.03
2023-05-10T10:35:10.501Z,819.78
2023-05-10T10:37:48.696Z,798.95
2023-05-10T10:40:28.161Z,788.17
2023-05-10T10:42:57.126Z,789.42
2023-05-10T10:45:26.460Z,781.33
2023-05-10T10:48:23.421Z,772.13
2023-05-10T10:51:00.247Z,754.58
2023-05-10T10:53:31.814Z,771.78
2023-05-10T10:56:13.809Z,742.30
2023-05-10T10:58:44.127Z,860.00
2023-05-10T11:01:19.989Z,865.47
2023-05-10T11:04:22.477Z,819.33
2023-05-10T11:06:51.932Z,735.75
2023-05-10T11:09:22.999Z,763.08
2023-05-10T11:11:56.403Z,788.80
2023-05-10T11:14:25.824Z,742.92
2023-05-10T11:17:21.128Z,804.08
2023-05-10T11:20:08.664Z,758.65
2023-05-10T11:22:55.990Z,747.80
2023-05-10T11:25:35.368Z,753.40
2023-05-10T11:28:18.880Z,796.55
2023-05-10T11:30:48.557Z,760.75
2023-05-10T11:33:21.022Z,825.55
2023-05-10T11:35:50.035Z,753.53
2023-05-10T11:38:21.009Z,774.28
2023-05-10T11:40:55.693Z,853.05
2023-05-10T11:43:29.854Z,777.33
2023-05-10T11:46:01.413Z,791.90
2023-05-10T11:51:40.355Z,759.85
2023-05-10T11:54:11.245Z,785.75
2023-05-10T11:56:46.326Z,803.85
2023-05-10T11:59:17.657Z,811.35
2023-05-10T12:01:46.757Z,788.53
2023-05-10T12:04:27.883Z,833.13
2023-05-10T12:07:02.639Z,801.30
2023-05-10T12:09:43.171Z,777.30
2023-05-10T12:12:19.143Z,806.83
2023-05-10T12:15:00.419Z,790.55
2023-05-10T12:17:31.258Z,858.97
2023-05-10T12:20:15.281Z,820.63
2023-05-10T12:22:46.335Z,758.65
2023-05-10T12:25:15.166Z,848.40
2023-05-10T12:27:51.140Z,790.97
2023-05-10T12:30:24.739Z,781.25
2023-05-10T12:33:30.124Z,764.92
2023-05-10T12:38:32.487Z,821.10
2023-05-10T12:41:05.208Z,826.33
2023-05-10T12:43:36.675Z,796.60
2023-05-10T12:46:09.225Z,798.20
2023-05-10T12:48:38.478Z,808.78
2023-05-10T12:51:10.569Z,794.72
2023-05-10T12:53:40.866Z,775.80
2023-05-10T12:56:10.803Z,780.90
2023-05-10T12:58:41.295Z,760.63
2023-05-10T13:01:09.847Z,780.53
2023-05-10T13:03:40.904Z,852.17
2023-05-10T13:06:10.282Z,781.10
2023-05-10T13:08:53.149Z,773.50
2023-05-10T13:11:22.474Z,776.33
2023-05-10T13:13:50.878Z,742.42
2023-05-10T13:16:19.469Z,787.60
2023-05-10T13:18:47.880Z,782.90
2023-05-10T13:21:16.253Z,878.50
2023-05-10T13:23:44.644Z,753.88
2023-05-10T13:26:14.325Z,761.33
2023-05-10T13:28:42.697Z,746.22
2023-05-10T13:31:11.252Z,791.78
2023-05-10T13:33:39.654Z,762.17
2023-05-10T13:36:09.173Z,762.95
2023-05-10T13:38:38.322Z,846.25
2023-05-10T13:41:07.186Z,793.63
2023-05-10T13:43:37.081Z,758.35
2023-05-10T13:46:05.696Z,848.70
2023-05-10T13:48:34.608Z,737.22
2023-05-10T13:51:03.566Z,782.90
2023-05-10T13:53:31.961Z,793.95
2023-05-10T13:56:00.375Z,757.58
2023-05-10T13:58:28.693Z,865.70
2023-05-10T14:00:58.886Z,757.53
2023-05-10T14:03:27.669Z,811.78
2023-05-10T14:05:56.069Z,821.20
2023-05-10T14:08:24.569Z,734.85
2023-05-10T14:10:53.815Z,712.55
2023-05-10T14:13:22.196Z,763.33
2023-05-10T14:15:50.635Z,669.90
2023-05-10T14:18:20.449Z,762.42
2023-05-10T14:20:49.191Z,742.95
2023-05-10T14:23:17.538Z,749.28
2023-05-10T14:25:45.882Z,744.08
2023-05-10T14:28:14.319Z,733.70
2023-05-10T14:30:42.837Z,691.90
2023-05-10T14:33:11.535Z,695.35
2023-05-10T14:35:41.430Z,752.15
2023-05-10T14:38:09.776Z,737.78
2023-05-10T14:40:38.112Z,717.33
2023-05-10T14:43:06.533Z,799.33
2023-05-10T14:45:35.334Z,727.17
2023-05-10T14:48:05.528Z,886.40
2023-05-10T14:50:36.930Z,732.38
2023-05-10T14:53:07.077Z,785.42
2023-05-10T14:55:36.128Z,762.42
2023-05-10T14:58:04.871Z,709.08
2023-05-10T15:00:33.644Z,744.10
2023-05-10T15:03:03.450Z,730.40
2023-05-10T15:05:32.322Z,776.65
2023-05-10T15:08:01.029Z,748.83
2023-05-10T15:10:33.117Z,781.83
2023-05-10T15:13:02.698Z,816.43
2023-05-10T15:15:31.621Z,749.63
2023-05-10T15:18:00.037Z,752.17
2023-05-10T15:20:28.851Z,740.38
2023-05-10T15:22:57.581Z,762.92
2023-05-10T15:25:26.109Z,734.53
2023-05-10T15:27:55.830Z,735.15
2023-05-10T15:30:24.325Z,710.40
2023-05-10T15:32:52.861Z,779.08
2023-05-10T15:35:21.370Z,759.28
2023-05-10T15:37:50.448Z,891.83
2023-05-10T15:40:18.944Z,802.22
2023-05-10T15:42:47.297Z,756.92
2023-05-10T15:45:17.437Z,765.28
2023-05-10T15:47:46.263Z,896.42
2023-05-10T15:50:14.774Z,860.05
2023-05-10T15:52:43.227Z,795.97
2023-05-10T15:55:13.248Z,750.50
2023-05-10T15:57:42.377Z,749.33
2023-05-10T16:00:12.614Z,726.53
2023-05-10T16:02:42.826Z,745.08
2023-05-10T16:05:12.090Z,736.50
2023-05-10T16:07:41.648Z,860.72
2023-05-10T16:10:11.807Z,752.70
2023-05-10T16:12:40.865Z,804.35
2023-05-10T16:15:10.214Z,875.50
2023-05-10T16:17:38.643Z,784.50
2023-05-10T16:20:09.815Z,747.80
2023-05-10T16:22:38.305Z,775.58
2023-05-10T16:25:07.461Z,753.60
2023-05-10T16:27:36.524Z,785.47
2023-05-10T16:30:05.244Z,803.63
2023-05-10T16:32:33.821Z,882.15
2023-05-10T16:35:02.182Z,760.72
2023-05-10T16:37:31.934Z,740.45
2023-05-10T16:40:00.548Z,747.22
2023-05-10T16:42:30.116Z,875.85
2023-05-10T16:44:58.535Z,834.00
2023-05-10T16:47:27.492Z,749.33
2023-05-10T16:49:56.087Z,794.22
2023-05-10T16:52:24.504Z,814.20
2023-05-10T16:54:56.104Z,737.00
2023-05-10T16:57:24.804Z,732.78
2023-05-10T16:59:53.330Z,726.92
2023-05-10T17:02:21.835Z,730.65
2023-05-10T17:08:41.101Z,720.30
2023-05-10T17:11:11.053Z,728.40
2023-05-10T17:13:40.065Z,757.08
2023-05-10T17:16:20.930Z,764.20
2023-05-10T17:18:52.905Z,752.47
2023-05-10T17:21:21.670Z,774.17
2023-05-10T17:23:50.286Z,760.70
2023-05-10T17:26:20.414Z,748.15
2023-05-10T17:28:49.185Z,745.92
2023-05-10T17:31:18.409Z,739.83
2023-05-10T17:33:47.028Z,745.88
2023-05-10T17:36:15.579Z,743.88
2023-05-10T17:38:44.310Z,771.47
2023-05-10T17:41:12.691Z,744.88
2023-05-10T17:43:42.500Z,873.47
2023-05-10T17:46:11.284Z,759.95
2023-05-10T17:48:39.810Z,730.22
2023-05-10T17:51:13.682Z,735.88
2023-05-10T17:53:42.689Z,734.67
2023-05-10T17:56:19.670Z,744.92
2023-05-10T17:58:50.486Z,709.28
2023-05-10T18:01:19.027Z,798.33
2023-05-10T18:04:02.355Z,746.92
2023-05-10T18:06:30.766Z,742.67
2023-05-10T18:08:59.098Z,702.63
2023-05-10T18:19:19.670Z,686.13
2023-05-10T18:21:56.148Z,705.95
2023-05-10T18:24:37.816Z,680.47
2023-05-10T18:27:10.265Z,704.75
2023-05-10T18:29:39.097Z,719.15
2023-05-10T18:32:11.161Z,714.92
2023-05-10T18:34:41.103Z,705.63
2023-05-10T18:37:10.475Z,695.90
2023-05-10T18:39:39.623Z,705.40
2023-05-10T18:42:08.708Z,694.38
2023-05-10T18:44:40.476Z,773.70
2023-05-10T18:47:09.139Z,730.17
2023-05-10T18:50:03.363Z,675.75
2023-05-10T18:52:32.023Z,689.07
2023-05-10T18:55:00.490Z,719.35
2023-05-10T18:57:31.575Z,746.97
2023-05-10T19:00:04.369Z,707.20
2023-05-10T19:02:33.067Z,714.17
2023-05-10T19:05:03.327Z,727.25
2023-05-10T19:07:32.056Z,719.40
2023-05-10T19:10:00.948Z,718.22
2023-05-10T19:12:43.646Z,712.50
2023-05-10T19:15:12.908Z,720.03
2023-05-10T19:17:46.346Z,743.35
2023-05-10T19:20:18.842Z,705.00
2023-05-10T19:23:01.992Z,687.92
2023-05-10T19:25:36.908Z,696.10
2023-05-10T19:28:09.019Z,719.08
2023-05-10T19:30:43.541Z,696.95
2023-05-10T19:33:12.680Z,701.70
2023-05-10T19:35:42.844Z,692.47
2023-05-10T19:38:11.806Z,744.75
2023-05-10T19:40:40.483Z,693.40
2023-05-10T19:43:09.492Z,710.47
2023-05-10T19:45:40.812Z,699.00
2023-05-10T19:48:10.059Z,703.03
2023-05-10T19:58:40.849Z,695.20
2023-05-10T20:01:09.754Z,697.42
2023-05-10T20:03:38.487Z,692.72
2023-05-10T20:06:07.488Z,694.13
2023-05-10T20:08:36.084Z,693.85
2023-05-10T20:11:04.761Z,692.47
2023-05-10T20:14:31.865Z,701.72
2023-05-10T20:17:01.906Z,692.13
2023-05-10T20:19:30.748Z,693.42
2023-05-10T20:22:35.654Z,740.95
